createdAt,value
2022-11-07T00:03:33.394Z,2.60
2022-11-07T00:06:00.104Z,2.66
2022-11-07T00:08:32.064Z,2.68
2022-11-07T00:11:00.331Z,2.67
2022-11-07T00:13:28.540Z,2.72
2022-11-07T00:15:59.120Z,2.79
2022-11-07T00:18:25.910Z,2.84
2022-11-07T00:20:52.601Z,2.90
2022-11-07T00:23:19.354Z,2.98
2022-11-07T00:25:46.041Z,2.99
2022-11-07T00:28:12.783Z,3.01
2022-11-07T00:30:39.530Z,2.96
2022-11-07T00:33:06.295Z,3.18
2022-11-07T00:35:33.197Z,3.15
2022-11-07T00:37:59.931Z,3.07
2022-11-07T00:40:26.671Z,3.07
2022-11-07T00:42:53.441Z,3.00
2022-11-07T00:45:20.170Z,3.15
2022-11-07T00:47:46.887Z,3.21
2022-11-07T00:50:13.573Z,3.31
2022-11-07T00:52:40.244Z,3.25
2022-11-07T00:55:07.387Z,3.33
2022-11-07T00:57:34.072Z,3.34
2022-11-07T01:00:00.710Z,3.43
2022-11-07T01:02:27.655Z,3.50
2022-11-07T01:05:13.028Z,3.64
2022-11-07T01:07:41.113Z,3.66
2022-11-07T01:10:08.343Z,3.61
2022-11-07T01:12:35.964Z,3.75
2022-11-07T01:15:04.116Z,3.65
2022-11-07T01:17:30.907Z,3.79
2022-11-07T01:19:57.615Z,3.86
2022-11-07T01:22:24.340Z,3.95
2022-11-07T01:24:51.100Z,4.14
2022-11-07T01:27:17.824Z,4.17
2022-11-07T01:29:44.541Z,4.23
2022-11-07T01:32:11.254Z,4.15
2022-11-07T01:34:37.953Z,4.26
2022-11-07T01:37:04.676Z,4.26
2022-11-07T01:39:31.360Z,4.27
2022-11-07T01:41:58.096Z,4.25
2022-11-07T01:44:24.752Z,4.37
2022-11-07T01:46:54.770Z,4.36
2022-11-07T01:49:35.161Z,4.40
2022-11-07T01:52:09.995Z,4.60
2022-11-07T01:55:00.923Z,4.64
2022-11-07T01:57:33.340Z,4.74
2022-11-07T02:00:02.894Z,4.82
2022-11-07T02:02:29.779Z,4.76
2022-11-07T02:04:59.329Z,4.89
2022-11-07T02:07:26.400Z,4.91
2022-11-07T02:09:53.709Z,4.95
2022-11-07T02:12:22.507Z,5.12
2022-11-07T02:14:49.675Z,5.01
2022-11-07T02:17:16.957Z,4.95
2022-11-07T02:19:47.543Z,5.27
2022-11-07T02:22:40.151Z,5.42
2022-11-07T02:25:10.343Z,5.46
2022-11-07T02:27:37.462Z,5.60
2022-11-07T02:30:14.980Z,5.77
2022-11-07T02:32:41.712Z,5.73
2022-11-07T02:35:34.734Z,5.91
2022-11-07T02:38:05.570Z,5.94
2022-11-07T02:40:32.932Z,5.97
2022-11-07T02:43:00.676Z,5.88
2022-11-07T02:45:34.714Z,6.09
2022-11-07T02:48:01.860Z,6.01
2022-11-07T02:50:28.578Z,5.93
2022-11-07T02:52:55.274Z,5.99
2022-11-07T02:55:22.213Z,6.15
2022-11-07T02:57:49.180Z,6.26
2022-11-07T03:00:16.629Z,6.26
2022-11-07T03:02:50.139Z,6.17
2022-11-07T03:05:19.056Z,6.25
2022-11-07T03:07:48.232Z,6.21
2022-11-07T03:10:16.121Z,6.33
2022-11-07T03:12:43.102Z,6.12
2022-11-07T03:15:11.169Z,6.26
2022-11-07T03:17:38.132Z,6.15
2022-11-07T03:20:05.367Z,6.20
2022-11-07T03:22:32.021Z,6.13
2022-11-07T03:24:58.735Z,6.20
2022-11-07T03:27:25.634Z,6.19
2022-11-07T03:29:52.396Z,6.10
2022-11-07T03:32:19.061Z,6.05
2022-11-07T03:34:45.875Z,6.18
2022-11-07T03:37:12.580Z,6.05
2022-11-07T03:39:39.373Z,6.06
2022-11-07T03:42:06.131Z,6.04
2022-11-07T03:44:32.797Z,6.05
2022-11-07T03:46:59.780Z,6.05
2022-11-07T03:49:26.494Z,6.00
2022-11-07T03:51:53.172Z,5.74
2022-11-07T03:54:19.871Z,5.95
2022-11-07T03:56:46.606Z,5.97
2022-11-07T03:59:13.293Z,5.93
2022-11-07T04:01:40.134Z,5.95
2022-11-07T04:04:06.944Z,5.99
2022-11-07T04:06:33.711Z,5.94
2022-11-07T04:09:00.451Z,5.94
2022-11-07T04:11:45.747Z,5.98
2022-11-07T04:14:31.004Z,6.01
2022-11-07T04:17:16.393Z,6.05
2022-11-07T04:19:43.061Z,6.07
2022-11-07T04:22:09.762Z,6.09
2022-11-07T04:24:38.291Z,6.10
2022-11-07T04:27:28.687Z,6.14
2022-11-07T04:29:56.192Z,6.17
2022-11-07T04:32:26.083Z,6.10
2022-11-07T04:34:52.754Z,6.09
2022-11-07T04:37:20.026Z,6.08
2022-11-07T04:39:46.751Z,6.12
2022-11-07T04:42:13.532Z,5.99
2022-11-07T04:44:40.212Z,6.07
2022-11-07T04:47:06.922Z,6.19
2022-11-07T04:49:33.658Z,6.13
2022-11-07T04:52:00.381Z,6.17
2022-11-07T04:54:27.146Z,6.18
2022-11-07T04:56:53.878Z,6.23
2022-11-07T04:59:20.560Z,6.14
2022-11-07T05:01:47.244Z,6.14
2022-11-07T05:04:14.041Z,5.99
2022-11-07T05:06:42.157Z,6.05
2022-11-07T05:09:14.596Z,5.97
2022-11-07T05:11:41.274Z,5.93
2022-11-07T05:14:08.634Z,6.12
2022-11-07T05:16:36.105Z,6.17
2022-11-07T05:19:03.681Z,6.03
2022-11-07T05:21:30.402Z,6.05
2022-11-07T05:23:57.081Z,6.03
2022-11-07T05:26:23.883Z,6.16
2022-11-07T05:28:50.673Z,6.03
2022-11-07T05:31:18.204Z,6.06
2022-11-07T05:33:45.018Z,6.03
2022-11-07T05:36:17.320Z,6.22
2022-11-07T05:38:46.849Z,6.01
2022-11-07T05:41:14.720Z,6.06
2022-11-07T05:43:41.740Z,6.14
2022-11-07T05:46:08.994Z,6.24
2022-11-07T05:48:35.993Z,6.16
2022-11-07T05:51:04.062Z,6.35
2022-11-07T05:53:31.060Z,6.46
2022-11-07T05:55:58.894Z,6.77
2022-11-07T05:58:25.782Z,6.35
2022-11-07T06:00:52.635Z,6.68
2022-11-07T06:03:22.856Z,6.71
2022-11-07T06:05:49.644Z,6.52
2022-11-07T06:08:16.595Z,6.36
2022-11-07T06:10:44.077Z,6.26
2022-11-07T06:13:14.448Z,6.17
2022-11-07T06:15:42.606Z,6.15
2022-11-07T06:18:14.772Z,6.24
2022-11-07T06:20:41.678Z,6.16
2022-11-07T06:23:08.432Z,6.14
2022-11-07T06:25:36.530Z,6.06
2022-11-07T06:28:08.820Z,6.19
2022-11-07T06:30:36.586Z,6.34
2022-11-07T06:33:07.989Z,6.49
2022-11-07T06:35:35.256Z,6.56
2022-11-07T06:38:07.557Z,6.52
2022-11-07T06:40:34.442Z,6.53
2022-11-07T06:43:14.873Z,6.58
2022-11-07T06:45:42.841Z,6.94
2022-11-07T06:48:10.796Z,6.77
2022-11-07T06:50:38.131Z,6.92
2022-11-07T06:53:07.113Z,6.87
2022-11-07T06:55:35.264Z,7.02
2022-11-07T06:58:02.470Z,6.72
2022-11-07T07:00:30.862Z,6.57
2022-11-07T07:02:59.247Z,6.56
2022-11-07T07:05:26.481Z,6.51
2022-11-07T07:07:55.248Z,6.46
2022-11-07T07:10:23.601Z,6.56
2022-11-07T07:12:50.293Z,6.53
2022-11-07T07:15:17.126Z,6.66
2022-11-07T07:17:43.920Z,6.75
2022-11-07T07:20:11.575Z,7.04
2022-11-07T07:22:38.351Z,7.07
2022-11-07T07:25:05.473Z,7.50
2022-11-07T07:27:32.228Z,7.69
2022-11-07T07:29:58.993Z,7.99
2022-11-07T07:32:25.886Z,8.04
2022-11-07T07:34:52.727Z,8.33
2022-11-07T07:37:19.547Z,8.32
2022-11-07T07:39:46.223Z,8.27
2022-11-07T07:42:13.009Z,8.36
2022-11-07T07:44:39.801Z,8.55
2022-11-07T07:47:11.030Z,8.65
2022-11-07T07:49:38.241Z,8.75
2022-11-07T07:52:05.291Z,8.76
2022-11-07T07:54:32.121Z,8.93
2022-11-07T07:56:58.821Z,8.91
2022-11-07T07:59:25.605Z,9.05
2022-11-07T08:01:56.637Z,9.04
2022-11-07T08:04:24.012Z,9.12
2022-11-07T08:06:51.001Z,9.20
2022-11-07T08:09:17.694Z,9.21
2022-11-07T08:11:44.381Z,9.34
2022-11-07T08:14:11.903Z,9.23
2022-11-07T08:16:38.841Z,9.40
2022-11-07T08:19:05.570Z,9.50
2022-11-07T08:21:32.655Z,9.73
2022-11-07T08:24:00.969Z,9.63
2022-11-07T08:26:27.859Z,9.84
2022-11-07T08:28:55.155Z,9.85
2022-11-07T08:31:22.656Z,9.85
2022-11-07T08:33:49.433Z,9.77
2022-11-07T08:36:16.238Z,9.91
2022-11-07T08:38:42.935Z,10.10
2022-11-07T08:41:09.770Z,10.27
2022-11-07T08:43:36.487Z,10.33
2022-11-07T08:46:03.326Z,10.26
2022-11-07T08:48:30.329Z,10.58
2022-11-07T08:50:58.387Z,10.58
2022-11-07T08:53:26.576Z,10.73
2022-11-07T08:56:00.004Z,10.90
2022-11-07T08:58:30.033Z,11.33
2022-11-07T09:00:57.554Z,11.75
2022-11-07T09:03:44.416Z,12.10
2022-11-07T09:06:11.193Z,12.18
2022-11-07T09:08:37.882Z,12.25
2022-11-07T09:11:05.900Z,12.57
2022-11-07T09:13:33.957Z,12.63
2022-11-07T09:16:02.702Z,12.52
2022-11-07T09:18:29.501Z,12.73
2022-11-07T09:20:58.122Z,12.75
2022-11-07T09:23:25.395Z,12.88
2022-11-07T09:25:53.180Z,13.15
2022-11-07T09:28:19.891Z,13.01
2022-11-07T09:30:46.594Z,13.26
2022-11-07T09:33:13.529Z,13.56
2022-11-07T09:35:40.550Z,13.41
2022-11-07T09:38:07.335Z,13.34
2022-11-07T09:40:50.311Z,13.07
2022-11-07T09:43:29.237Z,12.74
2022-11-07T09:46:18.618Z,12.61
2022-11-07T09:48:51.061Z,13.01
2022-11-07T09:51:45.905Z,13.12
2022-11-07T09:54:17.654Z,13.22
2022-11-07T09:56:44.747Z,12.90
2022-11-07T09:59:26.093Z,13.20
2022-11-07T10:01:52.935Z,13.02
2022-11-07T10:04:25.151Z,12.98
2022-11-07T10:06:56.067Z,12.92
2022-11-07T10:09:28.663Z,13.28
2022-11-07T10:12:09.186Z,13.37
2022-11-07T10:14:41.831Z,13.38
2022-11-07T10:17:14.282Z,13.38
2022-11-07T10:20:08.365Z,13.81
2022-11-07T10:23:06.104Z,13.84
2022-11-07T10:25:44.472Z,13.66
2022-11-07T10:28:19.747Z,13.60
2022-11-07T10:30:49.372Z,13.60
2022-11-07T10:33:38.546Z,13.43
2022-11-07T10:36:19.051Z,13.34
2022-11-07T10:38:46.247Z,13.59
2022-11-07T10:41:28.038Z,13.80
2022-11-07T10:44:11.775Z,13.93
2022-11-07T10:46:48.935Z,14.19
2022-11-07T10:49:23.135Z,14.25
2022-11-07T10:51:51.098Z,14.05
2022-11-07T10:54:36.190Z,14.41
2022-11-07T10:57:12.045Z,14.61
2022-11-07T10:59:58.129Z,14.43
2022-11-07T11:02:26.435Z,14.40
2022-11-07T11:04:59.192Z,14.21
2022-11-07T11:07:33.919Z,14.28
2022-11-07T11:10:00.712Z,14.20
2022-11-07T11:12:32.248Z,14.21
2022-11-07T11:15:12.506Z,14.12
2022-11-07T11:17:39.986Z,14.06
2022-11-07T11:20:28.933Z,14.02
2022-11-07T11:22:55.761Z,13.86
2022-11-07T11:25:23.944Z,13.98
2022-11-07T11:28:05.597Z,13.79
2022-11-07T11:30:36.067Z,14.02
2022-11-07T11:33:06.913Z,14.03
2022-11-07T11:35:54.475Z,13.78
2022-11-07T11:38:29.217Z,13.88
2022-11-07T11:41:10.565Z,13.75
2022-11-07T11:44:00.892Z,13.78
2022-11-07T11:46:31.464Z,13.91
2022-11-07T11:49:06.034Z,13.72
2022-11-07T11:51:56.430Z,13.71
2022-11-07T11:54:23.226Z,13.64
2022-11-07T11:56:57.033Z,13.80
2022-11-07T12:00:01.279Z,14.12
2022-11-07T12:02:27.996Z,14.04
2022-11-07T12:05:07.073Z,13.99
2022-11-07T12:07:49.718Z,14.01
2022-11-07T12:10:48.823Z,14.08
2022-11-07T12:13:37.332Z,13.91
2022-11-07T12:16:10.074Z,13.98
2022-11-07T12:18:52.935Z,13.98
2022-11-07T12:21:43.521Z,14.13
2022-11-07T12:24:14.035Z,14.19
2022-11-07T12:27:06.973Z,14.12
2022-11-07T12:29:52.358Z,14.13
2022-11-07T12:32:41.038Z,14.20
2022-11-07T12:35:13.898Z,14.22
2022-11-07T12:38:08.599Z,14.12
2022-11-07T12:40:53.269Z,14.05
2022-11-07T12:43:26.211Z,14.03
2022-11-07T12:46:00.333Z,14.06
2022-11-07T12:48:29.872Z,14.14
2022-11-07T12:51:15.621Z,14.07
2022-11-07T12:54:00.035Z,14.13
2022-11-07T12:56:35.732Z,14.08
2022-11-07T12:59:11.269Z,13.87
2022-11-07T13:01:45.391Z,14.10
2022-11-07T13:04:38.372Z,14.02
2022-11-07T13:07:21.798Z,14.07
2022-11-07T13:10:08.446Z,14.08
2022-11-07T13:12:43.769Z,13.98
2022-11-07T13:15:13.417Z,13.90
2022-11-07T13:17:46.241Z,13.87
2022-11-07T13:20:22.304Z,13.93
2022-11-07T13:22:51.139Z,14.02
2022-11-07T13:25:17.937Z,14.05
2022-11-07T13:28:03.040Z,14.06
2022-11-07T13:30:29.731Z,13.86
2022-11-07T13:32:58.082Z,13.82
2022-11-07T13:35:27.566Z,13.73
2022-11-07T13:37:58.698Z,13.64
2022-11-07T13:40:31.083Z,13.52
2022-11-07T13:43:12.563Z,13.57
2022-11-07T13:45:48.815Z,13.57
2022-11-07T13:48:24.678Z,13.43
2022-11-07T13:51:20.781Z,13.36
2022-11-07T13:54:27.176Z,13.35
2022-11-07T13:56:59.692Z,13.25
2022-11-07T13:59:52.522Z,13.06
2022-11-07T14:02:30.677Z,13.05
2022-11-07T14:05:16.451Z,13.02
2022-11-07T14:07:49.614Z,12.95
2022-11-07T14:10:27.416Z,12.77
2022-11-07T14:13:07.965Z,12.54
2022-11-07T14:15:36.838Z,12.51
2022-11-07T14:18:04.581Z,12.39
2022-11-07T14:20:31.321Z,12.12
2022-11-07T14:23:03.221Z,11.99
2022-11-07T14:25:35.493Z,11.87
2022-11-07T14:28:07.484Z,11.60
2022-11-07T14:30:34.207Z,11.62
2022-11-07T14:33:04.431Z,11.21
2022-11-07T14:35:34.391Z,11.49
2022-11-07T14:38:25.535Z,11.27
2022-11-07T14:40:59.656Z,11.02
2022-11-07T14:43:28.161Z,11.04
2022-11-07T14:46:12.265Z,10.84
2022-11-07T14:48:42.602Z,10.65
2022-11-07T14:51:13.455Z,10.51
2022-11-07T14:53:53.179Z,10.45
2022-11-07T14:56:24.420Z,10.33
2022-11-07T14:58:51.856Z,10.24
2022-11-07T15:01:28.353Z,10.08
2022-11-07T15:04:14.862Z,10.01
2022-11-07T15:06:43.562Z,9.93
2022-11-07T15:09:12.374Z,9.66
2022-11-07T15:11:41.823Z,9.69
2022-11-07T15:14:30.046Z,9.59
2022-11-07T15:16:58.693Z,9.46
2022-11-07T15:19:25.655Z,9.40
2022-11-07T15:21:54.522Z,9.29
2022-11-07T15:24:35.373Z,9.20
2022-11-07T15:27:17.400Z,9.07
2022-11-07T15:29:55.766Z,8.91
2022-11-07T15:32:25.597Z,8.82
2022-11-07T15:37:41.532Z,8.68
2022-11-07T15:40:28.760Z,8.65
2022-11-07T15:42:55.519Z,8.46
2022-11-07T15:45:22.356Z,8.37
2022-11-07T15:47:49.982Z,8.33
2022-11-07T15:50:23.181Z,8.22
2022-11-07T15:52:52.294Z,8.26
2022-11-07T15:55:21.539Z,8.09
2022-11-07T15:57:49.925Z,7.87
2022-11-07T16:00:22.608Z,7.84
2022-11-07T16:02:49.611Z,7.80
2022-11-07T16:05:17.113Z,7.92
2022-11-07T16:16:01.025Z,7.49
2022-11-07T16:19:15.156Z,7.45
2022-11-07T16:52:43.619Z,6.37
2022-11-07T16:55:43.874Z,6.18
2022-11-07T17:07:49.947Z,5.87
2022-11-07T17:19:47.005Z,5.87
2022-11-07T17:22:40.299Z,5.80
2022-11-07T17:25:35.247Z,5.91
2022-11-07T17:32:14.838Z,5.82
2022-11-07T18:41:36.572Z,5.27
2022-11-07T18:44:05.884Z,5.28
2022-11-07T18:46:35.206Z,5.25
2022-11-07T18:49:04.762Z,5.31
2022-11-07T18:51:33.346Z,5.28
2022-11-07T18:54:02.968Z,5.17
2022-11-07T18:56:31.013Z,5.14
2022-11-07T18:58:59.001Z,5.10
2022-11-07T19:01:29.927Z,5.08
2022-11-07T19:04:00.239Z,5.15
2022-11-07T19:06:30.377Z,5.01
2022-11-07T19:08:57.680Z,5.01
2022-11-07T19:11:29.384Z,5.21
2022-11-07T19:14:02.127Z,5.07
2022-11-07T19:16:32.554Z,4.68
2022-11-07T19:19:00.323Z,4.97
2022-11-07T19:21:28.568Z,4.76
2022-11-07T19:23:56.371Z,4.81
2022-11-07T19:26:24.771Z,4.72
2022-11-07T19:28:54.634Z,4.61
2022-11-07T19:31:22.216Z,4.70
2022-11-07T19:33:51.798Z,4.63
2022-11-07T19:36:24.047Z,4.55
2022-11-07T19:38:51.530Z,4.43
2022-11-07T19:41:19.632Z,4.41
2022-11-07T19:43:51.583Z,4.34
2022-11-07T19:46:23.561Z,4.63
2022-11-07T19:48:55.903Z,4.49
2022-11-07T19:51:24.104Z,4.30
2022-11-07T19:53:59.803Z,4.32
2022-11-07T19:56:30.454Z,4.40
2022-11-07T19:58:59.643Z,4.38
2022-11-07T20:01:31.890Z,4.34
2022-11-07T20:04:00.752Z,4.34
2022-11-07T20:06:33.611Z,4.33
2022-11-07T20:09:02.004Z,4.29
2022-11-07T20:11:31.563Z,4.26
2022-11-07T20:14:03.276Z,4.35
2022-11-07T20:16:36.961Z,4.24
2022-11-07T20:19:04.925Z,4.43
2022-11-07T20:21:32.960Z,4.40
2022-11-07T20:24:00.556Z,4.48
2022-11-07T20:26:31.341Z,4.33
2022-11-07T20:28:59.644Z,4.28
2022-11-07T20:31:37.201Z,4.32
2022-11-07T20:34:07.583Z,4.26
2022-11-07T20:36:35.475Z,4.23
2022-11-07T20:39:05.777Z,4.22
2022-11-07T20:41:33.553Z,4.16
2022-11-07T20:44:04.627Z,4.14
2022-11-07T20:46:34.679Z,4.12
2022-11-07T20:49:10.436Z,4.18
2022-11-07T20:51:38.134Z,4.17
2022-11-07T20:54:06.061Z,4.14
2022-11-07T20:56:34.108Z,4.11
2022-11-07T20:59:02.581Z,4.04
2022-11-07T21:01:38.279Z,4.01
2022-11-07T21:04:12.663Z,4.18
2022-11-07T21:06:40.018Z,4.05
2022-11-07T21:09:07.924Z,3.97
2022-11-07T21:11:35.222Z,3.94
2022-11-07T21:14:06.145Z,3.95
2022-11-07T21:16:36.013Z,3.97
2022-11-07T21:19:05.914Z,3.84
2022-11-07T21:21:33.854Z,3.78
2022-11-07T21:24:01.758Z,3.87
2022-11-07T21:26:39.217Z,3.78
2022-11-07T21:29:08.194Z,3.72
2022-11-07T21:31:37.441Z,3.71
2022-11-07T21:34:07.199Z,3.67
2022-11-07T21:36:34.145Z,3.45
2022-11-07T21:39:03.124Z,3.35
2022-11-07T21:41:30.999Z,3.58
2022-11-07T21:43:58.497Z,3.49
2022-11-07T21:46:28.581Z,3.64
2022-11-07T21:48:56.133Z,3.48
2022-11-07T21:51:26.159Z,3.51
2022-11-07T21:53:53.367Z,3.66
2022-11-07T21:56:22.764Z,3.61
2022-11-07T21:58:51.528Z,3.46
2022-11-07T22:01:20.202Z,3.44
2022-11-07T22:06:37.830Z,3.11
2022-11-07T22:09:06.780Z,3.25
2022-11-07T22:11:33.681Z,3.22
2022-11-07T22:14:00.526Z,3.21
2022-11-07T22:16:27.313Z,3.11
2022-11-07T22:18:54.358Z,3.15
2022-11-07T22:21:23.460Z,3.20
2022-11-07T22:23:50.748Z,3.03
2022-11-07T22:26:22.829Z,3.09
2022-11-07T22:28:50.356Z,3.03
2022-11-07T22:31:20.830Z,2.95
2022-11-07T22:33:54.853Z,3.00
2022-11-07T22:36:21.855Z,2.69
2022-11-07T22:38:49.117Z,2.90
2022-11-07T22:41:21.132Z,2.83
2022-11-07T22:43:48.511Z,2.84
2022-11-07T22:46:18.943Z,2.47
2022-11-07T22:48:46.685Z,2.73
2022-11-07T22:51:16.481Z,2.90
2022-11-07T22:53:43.301Z,2.89
2022-11-07T22:56:18.172Z,2.82
2022-11-07T22:58:47.032Z,2.49
2022-11-07T23:01:20.276Z,2.57
2022-11-07T23:03:47.973Z,2.51
2022-11-07T23:06:15.452Z,2.40
2022-11-07T23:08:42.442Z,2.37
2022-11-07T23:14:06.992Z,2.59
2022-11-07T23:16:39.632Z,2.54
2022-11-07T23:19:19.072Z,2.55
2022-11-07T23:21:46.317Z,2.76
2022-11-07T23:24:13.884Z,2.47
2022-11-07T23:26:40.781Z,2.59
2022-11-07T23:29:11.911Z,2.60
2022-11-07T23:31:43.363Z,2.54
2022-11-07T23:34:10.236Z,2.54
2022-11-07T23:36:37.321Z,2.40
2022-11-07T23:39:05.982Z,2.43
2022-11-07T23:41:32.773Z,2.42
2022-11-07T23:43:59.875Z,2.48
2022-11-07T23:46:45.202Z,2.56
2022-11-07T23:49:30.902Z,2.50
2022-11-07T23:51:57.717Z,2.50
2022-11-07T23:54:43.392Z,2.72
2022-11-07T23:57:10.143Z,2.52
2022-11-07T23:59:59.462Z,2.58
